Time;durP1;ratioP1;P1;durP2;ratioP2;P2;SDS_P1;SDS_P2;PMS_P1;PMS_P2;Temp;Humidity;BMP_temperature;BMP_pressure;BME280_temperature;BME280_humidity;BME280_pressure;Samples;Min_cycle;Max_cycle;Signal;HPM_P1;HPM_P2
2022/12/24 00:00:23;;;;;;;32.35;4.60;;;;;;;-142.75;100.00;76777.00;5001332;28;20471;-63
2022/12/24 00:02:50;;;;;;;27.05;2.95;;;;;;;-142.75;100.00;76777.00;5001287;28;20346;-64
2022/12/24 00:05:15;;;;;;;27.40;3.15;;;;;;;-142.75;100.00;76788.81;5001402;28;20024;-63
2022/12/24 00:07:41;;;;;;;30.27;3.92;;;;;;;-142.75;100.00;76782.91;4996269;28;20386;-63
2022/12/24 00:10:07;;;;;;;21.98;3.17;;;;;;;-142.75;100.00;76794.69;5001851;28;20042;-64
2022/12/24 00:12:33;;;;;;;16.67;2.92;;;;;;;-142.75;100.00;76800.63;5002367;28;20171;-63
2022/12/24 00:14:58;;;;;;;26.00;3.13;;;;;;;-142.75;100.00;76802.56;5002469;28;20369;-63
2022/12/24 00:17:24;;;;;;;18.58;3.05;;;;;;;-142.75;100.00;76806.50;5002450;28;20350;-63
2022/12/24 00:19:49;;;;;;;29.80;3.55;;;;;;;-142.75;100.00;76800.63;4999464;28;20471;-63
2022/12/24 00:22:15;;;;;;;29.48;3.33;;;;;;;-142.75;100.00;76814.38;4995739;28;20398;-63
2022/12/24 00:24:40;;;;;;;29.50;3.35;;;;;;;-142.75;100.00;76810.44;5001902;28;20385;-63
2022/12/24 00:27:06;;;;;;;26.02;3.05;;;;;;;-142.75;100.00;76820.28;5002153;28;20338;-64
2022/12/24 00:29:32;;;;;;;23.20;3.45;;;;;;;-142.75;100.00;76830.13;5004330;28;20326;-63
2022/12/24 00:31:58;;;;;;;20.38;3.25;;;;;;;-142.75;100.00;76822.25;4984190;28;20113;-63
2022/12/24 00:34:24;;;;;;;31.60;3.33;;;;;;;-142.75;100.00;76834.06;5001887;28;20327;-63
2022/12/24 00:36:50;;;;;;;;;;;;;;;-142.75;100.00;76816.34;4999172;28;20032;-63
2022/12/24 00:39:15;;;;;;;30.23;3.58;;;;;;;-142.75;100.00;76832.09;5001903;28;20214;-63
2022/12/24 00:41:41;;;;;;;26.67;3.33;;;;;;;-142.75;100.00;76836.03;5001823;28;20362;-64
2022/12/24 00:44:11;;;;;;;18.13;3.30;;;;;;;-142.75;100.00;76851.78;4984225;28;20385;-63
2022/12/24 00:46:38;;;;;;;25.65;3.47;;;;;;;-142.75;100.00;76853.75;4992501;28;20021;-63
2022/12/24 00:49:05;;;;;;;27.15;3.70;;;;;;;-142.75;100.00;76849.81;4983809;28;20028;-64
2022/12/24 00:51:31;;;;;;;31.67;3.85;;;;;;;-142.75;100.00;76875.41;5001793;28;20020;-63
2022/12/24 00:53:58;;;;;;;25.35;3.38;;;;;;;-142.75;100.00;76881.31;5001960;28;20636;-63
2022/12/24 00:56:23;;;;;;;;;;;;;;;-142.75;100.00;76885.25;5002520;28;20024;-65
2022/12/24 00:58:49;;;;;;;29.52;3.33;;;;;;;-142.75;100.00;76869.50;5001796;28;20210;-63
2022/12/24 01:01:15;;;;;;;32.85;4.28;;;;;;;-142.75;100.00;76873.44;5001907;28;20359;-63
2022/12/24 01:03:40;;;;;;;;;;;;;;;-142.75;100.00;76869.50;5002102;28;20102;-63
2022/12/24 01:06:09;;;;;;;21.92;2.90;;;;;;;-142.75;100.00;76881.31;5002069;28;20299;-63
2022/12/24 01:08:35;;;;;;;28.10;3.70;;;;;;;-142.75;100.00;76885.25;5002890;28;20553;-64
2022/12/24 01:11:03;;;;;;;33.97;3.70;;;;;;;-142.75;100.00;76889.19;5001315;28;20021;-64
2022/12/24 01:13:28;;;;;;;25.73;3.45;;;;;;;-142.75;100.00;76904.94;5000861;28;20256;-64
2022/12/24 01:15:54;;;;;;;19.83;3.13;;;;;;;-142.75;100.00;76912.81;5001469;28;20412;-64
2022/12/24 01:18:20;;;;;;;29.77;3.78;;;;;;;-142.75;100.00;76914.78;5002292;28;20035;-65
2022/12/24 01:20:56;;;;;;;;;;;;;;;-142.75;100.00;76901.00;4982806;28;20206;-64
2022/12/24 01:23:21;;;;;;;33.53;3.42;;;;;;;-142.75;100.00;76926.59;5000656;28;19985;-64
2022/12/24 01:25:47;;;;;;;34.08;3.67;;;;;;;-142.75;100.00;76920.69;4984032;28;20440;-63
2022/12/24 01:28:12;;;;;;;21.73;3.58;;;;;;;-142.75;100.00;76930.53;5002067;28;20302;-63
2022/12/24 01:30:40;;;;;;;32.08;2.90;;;;;;;-142.75;100.00;76922.66;4987684;28;20346;-64
2022/12/24 01:33:05;;;;;;;25.63;3.42;;;;;;;-142.75;100.00;76924.63;5001369;28;20033;-63
2022/12/24 01:35:31;;;;;;;33.78;3.83;;;;;;;-142.75;100.00;76934.47;4983683;28;20236;-64
2022/12/24 01:37:56;;;;;;;30.67;4.03;;;;;;;-142.75;100.00;76944.31;5002298;28;20030;-64
2022/12/24 01:43:23;;;;;;;25.80;4.55;;;;;;;-142.75;100.00;76956.13;5001418;28;20055;-63
2022/12/24 01:45:51;;;;;;;24.45;3.42;;;;;;;-142.75;100.00;76952.19;4983445;28;20105;-63
2022/12/24 01:48:20;;;;;;;23.13;3.20;;;;;;;-142.75;100.00;76964.00;5003816;28;20028;-64
2022/12/24 01:50:47;;;;;;;28.10;4.10;;;;;;;-142.75;100.00;76962.03;4983049;28;20640;-64
2022/12/24 01:53:14;;;;;;;32.55;3.72;;;;;;;-142.75;100.00;76962.03;5001013;28;20538;-63
2022/12/24 01:55:41;;;;;;;24.67;3.70;;;;;;;-142.75;100.00;76969.91;4983588;28;20037;-64
2022/12/24 01:58:08;;;;;;;20.10;3.20;;;;;;;-142.75;100.00;76971.88;5001220;28;20553;-63
2022/12/24 02:00:34;;;;;;;20.92;2.63;;;;;;;-142.75;100.00;76969.91;4983558;28;20853;-64
2022/12/24 02:02:59;;;;;;;22.83;2.35;;;;;;;-142.75;100.00;76971.88;5001244;28;20082;-63
2022/12/24 02:05:34;;;;;;;22.75;2.63;;;;;;;-142.75;100.00;76964.00;4983211;28;20484;-64
2022/12/24 02:08:02;;;;;;;26.13;3.28;;;;;;;-142.75;100.00;76960.06;4983112;28;20060;-64
2022/12/24 02:10:28;;;;;;;25.65;3.25;;;;;;;-142.75;100.00;76981.72;5000991;28;20094;-63
2022/12/24 02:12:54;;;;;;;23.83;3.42;;;;;;;-142.75;100.00;76981.72;5001013;28;20542;-63
2022/12/24 02:15:20;;;;;;;18.55;2.55;;;;;;;-142.75;100.00;76979.75;5000845;28;20148;-64
2022/12/24 02:18:03;;;;;;;33.65;3.53;;;;;;;-142.75;100.00;76964.00;5001336;28;20114;-63
2022/12/24 02:21:05;;;;;;;31.33;3.60;;;;;;;-142.75;100.00;76977.78;5004052;28;20105;-63
2022/12/24 02:24:09;;;;;;;29.83;4.18;;;;;;;-142.75;100.00;76991.56;4986583;28;20017;-63
2022/12/24 02:27:00;;;;;;;31.20;3.28;;;;;;;-142.75;100.00;76985.66;4973449;28;20166;-63
2022/12/24 02:29:38;;;;;;;35.55;5.22;;;;;;;-142.75;100.00;76999.44;5004213;28;20083;-64
2022/12/24 02:32:19;;;;;;;30.77;4.70;;;;;;;-142.75;100.00;76975.81;4987518;28;20052;-63
2022/12/24 02:34:50;;;;;;;27.85;3.95;;;;;;;-142.75;100.00;76975.81;4996638;28;20036;-63
2022/12/24 02:37:30;;;;;;;33.50;4.07;;;;;;;-142.75;100.00;76969.91;4970356;28;20033;-63
2022/12/24 02:40:11;;;;;;;29.17;4.20;;;;;;;-142.75;100.00;76964.00;4999454;28;20047;-63
2022/12/24 02:42:46;;;;;;;30.42;4.13;;;;;;;-142.75;100.00;76967.94;5005286;28;20149;-63
2022/12/24 02:45:19;;;;;;;30.52;3.92;;;;;;;-142.75;100.00;76967.94;5004192;28;20033;-64
2022/12/24 02:47:45;;;;;;;32.78;4.82;;;;;;;-142.75;100.00;76956.13;5004342;28;20025;-63
2022/12/24 02:50:12;;;;;;;;;;;;;;;-142.75;100.00;76958.09;4986868;28;20553;-63
2022/12/24 02:52:40;;;;;;;25.90;4.53;;;;;;;-142.75;100.00;76948.25;4972517;28;19943;-63
2022/12/24 02:55:26;;;;;;;33.53;4.35;;;;;;;-142.75;100.00;76965.97;4986072;28;20548;-64
2022/12/24 02:58:01;;;;;;;41.55;4.45;;;;;;;-142.75;100.00;76962.03;4948746;28;20564;-63
2022/12/24 03:00:39;;;;;;;21.67;4.25;;;;;;;-142.75;100.00;76958.09;4986568;28;20029;-63
2022/12/24 03:03:07;;;;;;;33.17;4.63;;;;;;;-142.75;100.00;76956.13;5004545;28;20079;-63
2022/12/24 03:05:43;;;;;;;29.02;3.75;;;;;;;-142.75;100.00;76942.34;5004590;28;20545;-64
2022/12/24 03:08:08;;;;;;;21.30;4.60;;;;;;;-142.75;100.00;76956.13;5004563;28;20024;-64
2022/12/24 03:10:52;;;;;;;24.52;3.70;;;;;;;-142.75;100.00;76952.19;5004258;28;20334;-63
2022/12/24 03:13:20;;;;;;;35.20;4.65;;;;;;;-142.75;100.00;76952.19;5003438;28;20024;-64
2022/12/24 03:15:47;;;;;;;27.75;4.00;;;;;;;-142.75;100.00;76952.19;5004362;28;20029;-63
2022/12/24 03:18:18;;;;;;;31.65;3.85;;;;;;;-142.75;100.00;76948.25;5003435;28;20143;-63
2022/12/24 03:20:49;;;;;;;29.35;4.03;;;;;;;-142.75;100.00;76950.22;5003627;28;20213;-65
2022/12/24 03:23:15;;;;;;;25.90;4.07;;;;;;;-142.75;100.00;76946.28;5003825;28;20027;-64
2022/12/24 03:25:43;;;;;;;27.70;3.88;;;;;;;-142.75;100.00;76960.06;5005559;28;20330;-64
2022/12/24 03:28:11;;;;;;;45.47;4.82;;;;;;;-142.75;100.00;76956.13;5003413;28;20020;-63
2022/12/24 03:30:41;;;;;;;32.80;3.78;;;;;;;-142.75;100.00;76952.19;5003983;28;20600;-63
2022/12/24 03:33:06;;;;;;;25.92;4.18;;;;;;;-142.75;100.00;76962.03;4985700;28;20059;-63
2022/12/24 03:35:32;;;;;;;31.40;3.92;;;;;;;-142.75;100.00;76962.03;5003272;28;20191;-63
2022/12/24 03:37:57;;;;;;;28.90;4.65;;;;;;;-142.75;100.00;76956.13;5003350;28;20334;-63
2022/12/24 03:40:23;;;;;;;32.17;3.08;;;;;;;-142.75;100.00;76956.13;5004973;28;20474;-63
2022/12/24 03:42:48;;;;;;;29.23;3.75;;;;;;;-142.75;100.00;76950.22;5003199;28;20338;-63
2022/12/24 03:45:14;;;;;;;27.00;4.38;;;;;;;-142.75;100.00;76950.22;5003212;28;20330;-63
2022/12/24 03:47:39;;;;;;;30.60;3.55;;;;;;;-142.75;100.00;76956.13;5002924;28;20326;-63
2022/12/24 03:50:06;;;;;;;36.05;3.97;;;;;;;-142.75;100.00;76952.19;5003212;28;20307;-64
2022/12/24 03:52:31;;;;;;;21.15;2.83;;;;;;;-142.75;100.00;76944.31;5003221;28;20021;-64
2022/12/24 03:54:57;;;;;;;26.95;3.85;;;;;;;-142.75;100.00;76944.31;4987713;28;20323;-64
2022/12/24 03:57:22;;;;;;;23.75;2.33;;;;;;;-142.75;100.00;76956.13;5003033;28;20326;-63
2022/12/24 03:59:48;;;;;;;20.60;2.65;;;;;;;-142.75;100.00;76940.38;5003117;28;20460;-64
2022/12/24 04:02:13;;;;;;;25.88;3.70;;;;;;;-142.75;100.00;76938.41;5003364;28;20326;-63
2022/12/24 04:04:39;;;;;;;28.38;2.90;;;;;;;-142.75;100.00;76958.09;5003121;28;20303;-63
2022/12/24 04:07:05;;;;;;;25.38;3.05;;;;;;;-142.75;100.00;76956.13;5002589;28;20020;-63
2022/12/24 04:09:31;;;;;;;20.23;2.45;;;;;;;-142.75;100.00;76948.25;4984531;28;20436;-63
2022/12/24 04:11:56;;;;;;;23.73;3.45;;;;;;;-142.75;100.00;76950.22;5002450;28;20331;-64
2022/12/24 04:14:22;;;;;;;16.70;2.80;;;;;;;-142.75;100.00;76954.16;5002556;28;20429;-64
2022/12/24 04:16:47;;;;;;;23.65;2.95;;;;;;;-142.75;100.00;76948.25;5005073;28;20334;-62
2022/12/24 04:19:13;;;;;;;32.42;3.42;;;;;;;-142.75;100.00;76956.13;5002410;28;20489;-63
2022/12/24 04:21:38;;;;;;;36.63;3.92;;;;;;;-142.75;100.00;76958.09;4984339;28;20370;-63
2022/12/24 04:24:04;;;;;;;18.08;2.63;;;;;;;-142.75;100.00;76952.19;5004201;28;20428;-63
2022/12/24 04:26:30;;;;;;;29.50;3.40;;;;;;;-142.75;100.00;76964.00;5002187;28;20025;-63
2022/12/24 04:28:55;;;;;;;34.00;4.18;;;;;;;-142.75;100.00;76960.06;5002095;28;20311;-63
2022/12/24 04:31:21;;;;;;;32.08;3.40;;;;;;;-142.75;100.00;76967.94;4984205;28;20315;-63
2022/12/24 04:33:46;;;;;;;31.90;3.92;;;;;;;-142.75;100.00;76964.00;5002079;28;20393;-63
2022/12/24 04:36:15;;;;;;;25.88;2.75;;;;;;;-142.75;100.00;76956.13;4984231;28;20614;-63
2022/12/24 04:38:42;;;;;;;30.10;3.63;;;;;;;-142.75;100.00;76967.94;5003172;28;20029;-63
2022/12/24 04:41:10;;;;;;;;;;;;;;;-142.75;100.00;76965.97;5002629;28;20039;-63
2022/12/24 04:43:35;;;;;;;33.75;3.15;;;;;;;-142.75;100.00;76969.91;5001796;28;19912;-63
2022/12/24 04:46:17;;;;;;;24.55;3.47;;;;;;;-142.75;100.00;76971.88;5002850;28;20544;-64
2022/12/24 04:48:44;;;;;;;34.63;4.03;;;;;;;-142.75;100.00;76981.72;5003975;28;20017;-64
2022/12/24 04:51:10;;;;;;;35.10;4.32;;;;;;;-142.75;100.00;76971.88;5001931;28;20020;-63
2022/12/24 04:53:36;;;;;;;;;;;;;;;-142.75;100.00;76965.97;5021263;22;20214;-68
2022/12/24 04:56:03;;;;;;;33.23;3.83;;;;;;;-142.75;100.00;76975.81;5001073;28;19920;-68
2022/12/24 04:58:29;;;;;;;51.53;5.53;;;;;;;-142.75;100.00;76983.69;4980685;28;20131;-68
2022/12/24 05:00:54;;;;;;;32.50;3.88;;;;;;;-142.75;100.00;76983.69;5004321;28;20284;-68
2022/12/24 05:03:20;;;;;;;43.42;4.65;;;;;;;-142.75;100.00;76975.81;4985577;28;20054;-68
2022/12/24 05:05:46;;;;;;;42.03;3.75;;;;;;;-142.75;100.00;76973.84;5000844;28;20334;-67
2022/12/24 05:08:13;;;;;;;23.02;3.58;;;;;;;-142.75;100.00;76985.66;5001781;28;20420;-68
2022/12/24 05:10:38;;;;;;;38.83;4.25;;;;;;;-142.75;100.00;76981.72;5001960;28;20132;-68
2022/12/24 05:13:04;;;;;;;25.33;4.38;;;;;;;-142.75;100.00;76971.88;5003146;28;20480;-68
2022/12/24 05:15:30;;;;;;;34.53;4.25;;;;;;;-142.75;100.00;76969.91;5004194;28;20020;-68
2022/12/24 05:17:57;;;;;;;;;;;;;;;-142.75;100.00;76971.88;5004454;28;20541;-68
2022/12/24 05:20:22;;;;;;;36.85;4.32;;;;;;;-142.75;100.00;76973.84;5004186;28;20555;-68
2022/12/24 05:28:21;;;;;;;37.70;3.95;;;;;;;-142.75;100.00;76971.88;5001656;28;20695;-68
2022/12/24 05:30:47;;;;;;;34.38;5.88;;;;;;;-142.75;100.00;76964.00;5002380;28;20028;-68
2022/12/24 05:33:12;;;;;;;35.78;4.05;;;;;;;-142.75;100.00;76969.91;5002242;28;20412;-66
2022/12/24 05:35:38;;;;;;;32.17;4.20;;;;;;;-142.75;100.00;76956.13;5001525;28;20194;-68
2022/12/24 05:38:03;;;;;;;30.70;4.55;;;;;;;-142.75;100.00;76964.00;5001605;28;20480;-68
2022/12/24 05:40:29;;;;;;;37.30;5.13;;;;;;;-142.75;100.00;76975.81;4983137;28;20343;-67
2022/12/24 05:42:54;;;;;;;34.40;4.10;;;;;;;-142.75;100.00;76979.75;5002555;28;20218;-68
2022/12/24 05:45:20;;;;;;;36.60;3.92;;;;;;;-142.75;100.00;76971.88;5003128;28;20326;-68
2022/12/24 05:47:45;;;;;;;41.95;4.97;;;;;;;-142.75;100.00;76975.81;5002230;28;20393;-68
2022/12/24 05:50:11;;;;;;;39.53;4.97;;;;;;;-142.75;100.00;76971.88;5001223;28;20315;-67
2022/12/24 05:52:37;;;;;;;33.72;5.00;;;;;;;-142.75;100.00;76973.84;5002539;28;20561;-68
2022/12/24 05:55:02;;;;;;;32.50;4.90;;;;;;;-142.75;100.00;76995.50;5005233;28;20426;-68
2022/12/24 05:57:28;;;;;;;29.00;4.13;;;;;;;-142.75;100.00;76983.69;5007549;28;20349;-68
2022/12/24 05:59:54;;;;;;;42.95;5.35;;;;;;;-142.75;100.00;76993.53;5005285;28;20028;-69
2022/12/24 06:02:19;;;;;;;41.45;4.47;;;;;;;-142.75;100.00;76987.63;5005554;28;20028;-68
2022/12/24 06:04:45;;;;;;;45.28;6.00;;;;;;;-142.75;100.00;76993.53;5005527;28;20392;-68
2022/12/24 06:07:10;;;;;;;31.80;4.97;;;;;;;-142.75;100.00;77003.38;5005412;28;20358;-68
2022/12/24 06:09:36;;;;;;;31.40;4.45;;;;;;;-142.75;100.00;77007.31;5007325;28;20342;-70
2022/12/24 06:12:01;;;;;;;40.85;5.00;;;;;;;-142.75;100.00;77009.28;5004838;28;20488;-68
2022/12/24 06:14:27;;;;;;;34.72;4.10;;;;;;;-142.75;100.00;77007.31;5005972;28;20357;-68
2022/12/24 06:16:53;;;;;;;38.72;5.18;;;;;;;-142.75;100.00;77038.81;4986543;28;20487;-68
2022/12/24 06:19:18;;;;;;;39.20;4.43;;;;;;;-142.75;100.00;77040.78;5007380;28;20326;-68
2022/12/24 06:21:44;;;;;;;36.75;4.60;;;;;;;-142.75;100.00;77040.78;5007114;28;20365;-68
2022/12/24 06:24:09;;;;;;;44.53;5.30;;;;;;;-142.75;100.00;77042.75;5007032;28;20388;-68
2022/12/24 06:26:34;;;;;;;31.30;4.35;;;;;;;-142.75;100.00;77046.69;5007029;28;20441;-68
2022/12/24 06:29:00;;;;;;;39.28;3.75;;;;;;;-142.75;100.00;77058.50;4978442;28;20335;-68
2022/12/24 06:31:25;;;;;;;48.55;5.20;;;;;;;-142.75;100.00;77058.50;5007035;28;20273;-68
2022/12/24 06:33:52;;;;;;;39.67;5.00;;;;;;;-142.75;100.00;77062.44;4986414;28;20374;-66
2022/12/24 06:36:22;;;;;;;32.17;4.78;;;;;;;-142.75;100.00;77070.31;5004985;28;20614;-68
2022/12/24 06:38:49;;;;;;;31.40;3.70;;;;;;;-142.75;100.00;77072.28;5005041;28;20028;-68
2022/12/24 06:41:15;;;;;;;;;;;;;;;-142.75;100.00;77064.41;5006327;28;20028;-68
2022/12/24 06:43:48;;;;;;;27.55;3.50;;;;;;;-142.75;100.00;77078.19;5004833;28;20086;-68
2022/12/24 06:46:15;;;;;;;32.60;4.22;;;;;;;-142.75;100.00;77070.31;5005074;28;20105;-68
2022/12/24 06:48:42;;;;;;;30.88;3.63;;;;;;;-142.75;100.00;77074.25;5004257;28;20028;-68
2022/12/24 06:51:08;;;;;;;26.70;4.28;;;;;;;-142.75;100.00;77093.94;5006434;28;20028;-68
2022/12/24 06:53:33;;;;;;;39.88;5.57;;;;;;;-142.75;100.00;77091.97;5005439;28;20360;-68
2022/12/24 06:56:10;;;;;;;33.83;4.95;;;;;;;-142.75;100.00;77097.88;5005730;28;20299;-67
2022/12/24 06:58:37;;;;;;;24.60;3.55;;;;;;;-142.75;100.00;77099.84;5006271;28;20197;-68
2022/12/24 07:01:05;;;;;;;27.27;4.82;;;;;;;-142.75;100.00;77101.81;5004343;28;20131;-68
2022/12/24 07:03:31;;;;;;;33.35;4.55;;;;;;;-142.75;100.00;77105.75;5005151;28;20556;-68
2022/12/24 07:05:57;;;;;;;31.42;4.40;;;;;;;-142.75;100.00;77113.63;5003560;28;20029;-69
2022/12/24 07:08:23;;;;;;;42.90;4.63;;;;;;;-142.75;100.00;77111.66;5005488;28;20027;-68
2022/12/24 07:10:50;;;;;;;29.83;3.47;;;;;;;-142.75;100.00;77091.97;5004540;28;20478;-68
2022/12/24 07:13:15;;;;;;;33.95;3.80;;;;;;;-142.75;100.00;77088.03;5005497;28;20051;-69
2022/12/24 07:15:41;;;;;;;46.65;5.30;;;;;;;-142.75;100.00;77082.13;4986447;28;20562;-67
2022/12/24 07:18:07;;;;;;;38.72;4.78;;;;;;;-142.75;100.00;77082.13;4999745;28;20304;-67
2022/12/24 07:20:32;;;;;;;33.88;4.07;;;;;;;-142.75;100.00;77088.03;5005894;28;20044;-68
2022/12/24 07:22:58;;;;;;;39.28;4.38;;;;;;;-142.75;100.00;77099.84;5006047;28;20393;-68
2022/12/24 07:25:23;;;;;;;32.25;3.67;;;;;;;-142.75;100.00;77113.63;4991578;28;20351;-68
2022/12/24 07:27:49;;;;;;;39.03;3.80;;;;;;;-142.75;100.00;77101.81;4997780;28;20424;-69
2022/12/24 07:30:14;;;;;;;38.67;5.38;;;;;;;-142.75;100.00;77091.97;5004366;28;20436;-68
2022/12/24 07:32:40;;;;;;;36.72;3.85;;;;;;;-142.75;100.00;77101.81;5003275;28;20480;-68
2022/12/24 07:35:06;;;;;;;31.90;4.18;;;;;;;-142.75;100.00;77095.91;5003931;28;20331;-68
2022/12/24 07:37:32;;;;;;;43.58;4.78;;;;;;;-142.75;100.00;77101.81;5004027;28;20153;-68
2022/12/24 07:39:58;;;;;;;27.13;4.25;;;;;;;-142.75;100.00;77109.69;5003375;28;20382;-67
2022/12/24 07:42:23;;;;;;;41.63;4.68;;;;;;;-142.75;100.00;77111.66;5003397;28;20381;-68
2022/12/24 07:44:49;;;;;;;30.95;4.10;;;;;;;-142.75;100.00;77115.59;5004699;28;20314;-68
2022/12/24 07:47:15;;;;;;;32.08;5.10;;;;;;;-142.75;100.00;77121.50;5004728;28;20154;-68
2022/12/24 07:49:41;;;;;;;47.33;5.28;;;;;;;-142.75;100.00;77119.53;5003914;28;20477;-68
2022/12/24 07:52:06;;;;;;;35.35;4.70;;;;;;;-142.75;100.00;77107.72;5003535;28;20338;-68
2022/12/24 07:54:32;;;;;;;35.38;4.53;;;;;;;-142.75;100.00;77091.97;4985192;28;20398;-68
2022/12/24 07:56:57;;;;;;;31.95;4.70;;;;;;;-142.75;100.00;77097.88;5004364;28;20035;-68
2022/12/24 07:59:23;;;;;;;34.63;4.25;;;;;;;-142.75;100.00;77097.88;5003674;28;20203;-68
2022/12/24 08:01:48;;;;;;;32.90;5.13;;;;;;;-142.75;100.00;77117.56;5004202;28;20322;-67
2022/12/24 08:04:14;;;;;;;35.40;4.95;;;;;;;-142.75;100.00;77109.69;5004412;28;20309;-67
2022/12/24 08:06:39;;;;;;;31.83;4.53;;;;;;;-142.75;100.00;77123.47;5002910;28;20202;-68
2022/12/24 08:09:05;;;;;;;41.03;5.07;;;;;;;-142.75;100.00;77109.69;4984707;28;20338;-68
2022/12/24 08:11:31;;;;;;;32.75;4.60;;;;;;;-142.75;100.00;77097.88;5002768;28;20024;-67
2022/12/24 08:13:56;;;;;;;34.85;5.22;;;;;;;-142.75;100.00;77117.56;5004985;28;20315;-68
2022/12/24 08:16:22;;;;;;;40.22;4.60;;;;;;;-142.75;100.00;77125.44;5001901;28;20319;-67
2022/12/24 08:18:47;;;;;;;28.70;4.15;;;;;;;-142.75;100.00;77115.59;5004152;28;20151;-68
2022/12/24 08:21:13;;;;;;;31.85;4.57;;;;;;;-142.75;100.00;77119.53;5005068;28;20183;-68
2022/12/24 08:23:38;;;;;;;40.88;4.60;;;;;;;-142.75;100.00;77117.56;5004969;28;20346;-67
2022/12/24 08:26:09;;;;;;;40.92;5.55;;;;;;;-142.75;100.00;77097.88;4988182;28;20033;-68
2022/12/24 08:28:35;;;;;;;28.48;3.92;;;;;;;-142.75;100.00;77117.56;5004886;28;20035;-68
2022/12/24 08:31:00;;;;;;;25.98;4.35;;;;;;;-142.75;100.00;77115.59;5003471;28;20043;-68
2022/12/24 08:33:26;;;;;;;27.75;3.70;;;;;;;-142.75;100.00;77129.38;5002989;28;20025;-69
2022/12/24 08:35:53;;;;;;;26.13;4.90;;;;;;;-142.75;100.00;77127.41;5002165;28;20345;-68
2022/12/24 08:38:19;;;;;;;27.05;4.35;;;;;;;-142.75;100.00;77123.47;5003300;28;20033;-69
2022/12/24 08:40:47;;;;;;;29.38;3.33;;;;;;;-142.75;100.00;77127.41;4994255;28;20482;-68
2022/12/24 08:43:13;;;;;;;24.92;3.65;;;;;;;-142.75;100.00;77127.41;4997756;28;20035;-67
2022/12/24 08:45:39;;;;;;;;;;;;;;;-142.75;100.00;77119.53;5004189;28;20020;-68
2022/12/24 08:48:06;;;;;;;35.25;4.90;;;;;;;-142.75;100.00;77141.19;4984160;28;20218;-68
2022/12/24 08:50:32;;;;;;;34.03;4.20;;;;;;;-142.75;100.00;77131.34;5001981;28;20028;-68
2022/12/24 08:52:58;;;;;;;26.38;3.30;;;;;;;-142.75;100.00;77145.13;5002823;28;20389;-68
2022/12/24 08:55:24;;;;;;;31.35;3.97;;;;;;;-142.75;100.00;77135.28;5003976;28;20024;-68
2022/12/24 08:57:50;;;;;;;29.13;4.65;;;;;;;-142.75;100.00;77125.44;4989374;28;20365;-68
2022/12/24 09:00:15;;;;;;;25.52;3.33;;;;;;;-142.75;100.00;77125.44;4990993;28;20024;-69
2022/12/24 09:02:41;;;;;;;27.67;3.75;;;;;;;-142.75;100.00;77131.34;4983472;28;20377;-67
2022/12/24 09:05:07;;;;;;;29.02;3.63;;;;;;;-142.75;100.00;77115.59;4983604;28;20424;-69
2022/12/24 09:07:32;;;;;;;32.92;3.72;;;;;;;-142.75;100.00;77125.44;5001884;28;20337;-69
2022/12/24 09:09:58;;;;;;;29.05;4.57;;;;;;;-142.75;100.00;77111.66;5002263;28;20068;-68
2022/12/24 09:12:23;;;;;;;20.65;3.35;;;;;;;-142.75;100.00;77117.56;5001927;28;20342;-68
2022/12/24 09:14:53;;;;;;;24.33;3.60;;;;;;;-142.75;100.00;77117.56;4986535;28;20319;-70
2022/12/24 09:17:19;;;;;;;30.27;4.40;;;;;;;-142.75;100.00;77113.63;4999319;28;20028;-68
2022/12/24 09:19:45;;;;;;;;;;;;;;;-142.75;100.00;77113.63;5002397;28;20024;-68
2022/12/24 09:22:11;;;;;;;23.13;4.40;;;;;;;-142.75;100.00;77113.63;4982965;28;20213;-68
2022/12/24 09:24:36;;;;;;;34.90;4.45;;;;;;;-142.75;100.00;77117.56;5001661;28;20338;-67
2022/12/24 09:27:02;;;;;;;28.35;3.45;;;;;;;-142.75;100.00;77145.13;5001572;28;20044;-68
2022/12/24 09:29:28;;;;;;;;;;;;;;;-142.75;100.00;77125.44;5004208;28;20136;-68
2022/12/24 09:31:55;;;;;;;29.58;3.92;;;;;;;-142.75;100.00;77129.38;5001907;28;20149;-68
2022/12/24 09:34:20;;;;;;;24.55;3.60;;;;;;;-142.75;100.00;77115.59;5000195;28;20028;-68
2022/12/24 09:36:46;;;;;;;27.65;4.05;;;;;;;-142.75;100.00;77107.72;5002108;28;20298;-68
2022/12/24 09:39:13;;;;;;;36.17;4.32;;;;;;;-142.75;100.00;77103.78;5001830;28;20326;-68
2022/12/24 09:42:17;;;;;;;33.05;3.65;;;;;;;-142.75;100.00;77080.16;5002433;28;20012;-67
2022/12/24 09:44:57;;;;;;;27.85;3.35;;;;;;;-142.75;100.00;77072.28;4903795;28;20034;-69
2022/12/24 09:47:54;;;;;;;25.17;3.60;;;;;;;-142.75;100.00;77058.50;4992122;28;20036;-68
2022/12/24 09:50:40;;;;;;;18.10;3.37;;;;;;;-142.75;100.00;77066.38;4993024;28;20051;-69
2022/12/24 09:53:49;;;;;;;30.55;3.88;;;;;;;-142.75;100.00;77074.25;4997495;28;20665;-68
2022/12/24 09:56:19;;;;;;;31.88;3.97;;;;;;;-142.75;100.00;77068.34;4977675;28;20612;-69
2022/12/24 09:58:53;;;;;;;28.80;3.60;;;;;;;-142.75;100.00;77070.31;5001390;28;20024;-70
2022/12/24 10:01:19;;;;;;;25.40;3.53;;;;;;;-142.75;100.00;77066.38;4967167;28;20035;-69
2022/12/24 10:03:45;;;;;;;35.28;5.25;;;;;;;-142.75;100.00;77078.19;5002183;28;20056;-69
2022/12/24 10:06:23;;;;;;;26.27;3.65;;;;;;;-142.75;100.00;77068.34;5003204;28;20120;-66
2022/12/24 10:08:51;;;;;;;23.80;4.35;;;;;;;-142.75;100.00;77074.25;5000887;28;20081;-67
2022/12/24 10:11:42;;;;;;;34.45;3.78;;;;;;;-142.75;100.00;77078.19;5001155;28;20060;-67
2022/12/24 10:14:19;;;;;;;27.45;4.45;;;;;;;-142.75;100.00;77072.28;5001068;28;20016;-68
2022/12/24 10:16:57;;;;;;;32.13;4.50;;;;;;;-142.75;100.00;77064.41;5001332;28;20548;-67
2022/12/24 10:19:36;;;;;;;36.17;3.78;;;;;;;-142.75;100.00;77090.00;5001305;28;20029;-67
2022/12/24 10:22:31;;;;;;;24.33;3.63;;;;;;;-142.75;100.00;77066.38;5000964;28;20557;-68
2022/12/24 10:25:08;;;;;;;26.33;3.35;;;;;;;-142.75;100.00;77070.31;5000807;28;20017;-67
2022/12/24 10:27:38;;;;;;;21.42;3.40;;;;;;;-142.75;100.00;77097.88;5000421;28;20025;-68
2022/12/24 10:30:13;;;;;;;26.27;3.33;;;;;;;-142.75;100.00;77082.13;4982023;28;20860;-67
2022/12/24 10:32:40;;;;;;;24.27;3.00;;;;;;;-142.75;100.00;77097.88;5000429;28;20016;-67
2022/12/24 10:35:15;;;;;;;23.88;3.70;;;;;;;-142.75;100.00;77088.03;4982233;28;20656;-66
2022/12/24 10:37:46;;;;;;;25.23;4.22;;;;;;;-142.75;100.00;77086.06;4994150;28;20028;-67
2022/12/24 10:40:52;;;;;;;28.52;3.70;;;;;;;-142.75;100.00;77072.28;5001584;28;20765;-68
2022/12/24 10:43:23;;;;;;;27.35;4.22;;;;;;;-142.75;100.00;77072.28;5000254;28;20577;-67
2022/12/24 10:46:07;;;;;;;22.48;3.65;;;;;;;-142.75;100.00;77048.66;5004543;28;20029;-67
2022/12/24 10:48:52;;;;;;;25.88;3.97;;;;;;;-142.75;100.00;77070.31;5004953;28;20029;-67
2022/12/24 10:51:24;;;;;;;28.52;4.63;;;;;;;-142.75;100.00;77062.44;5003745;28;20024;-68
2022/12/24 10:56:41;;;;;;;22.23;3.33;;;;;;;-142.75;100.00;77056.53;5001426;28;20075;-65
2022/12/24 10:59:24;;;;;;;26.40;3.15;;;;;;;-142.75;100.00;77044.72;5006301;28;20056;-65
2022/12/24 11:01:51;;;;;;;19.27;3.17;;;;;;;-142.75;100.00;77038.81;4991886;28;20092;-65
2022/12/24 11:04:20;;;;;;;25.48;3.47;;;;;;;-142.75;100.00;77034.88;4984128;28;20080;-66
2022/12/24 11:06:58;;;;;;;20.77;3.13;;;;;;;-142.75;100.00;77066.38;4984402;28;20052;-65
2022/12/24 11:09:35;;;;;;;32.17;3.90;;;;;;;-142.75;100.00;77068.34;4986505;28;20029;-66
2022/12/24 11:12:04;;;;;;;21.20;3.92;;;;;;;-142.75;100.00;77070.31;4997745;28;20024;-65
2022/12/24 11:14:37;;;;;;;35.10;4.63;;;;;;;-142.75;100.00;77070.31;4996637;28;20033;-66
2022/12/24 11:17:03;;;;;;;18.70;3.17;;;;;;;-142.75;100.00;77046.69;4984131;28;20127;-65
2022/12/24 11:19:33;;;;;;;32.28;4.70;;;;;;;-142.75;100.00;77030.94;4993089;28;20530;-65
2022/12/24 11:22:07;;;;;;;18.50;3.38;;;;;;;-142.75;100.00;77028.97;4993046;28;20600;-67